KCXY

Capital City Airport

Harrisburg, Pennsylvania, USA
METAR KCXY 222056Z 21008KT 10SM CLR 13/M01 A3013 RMK AO2 SLP204 T01281006 56015
Observed Flight Rules
Oct-22 @ 20:56 UTC (47 minutes ago) Visual Flight Rules
Wind Visibility Clouds
210° at 8 knots 10 miles
  • Clear skies
Temperatures Readings
Current 13°C / 55°F
Dewpoint -1°C / 30°F
Humidity 38%
Altimeter 30.13" Hg
Pressure 1020.4 hPa
Elevation 106
METAR KCXY 222056Z 21008KT 10SM CLR 13/M01 A3013 RMK AO2 SLP204 T01281006 56015
Observed Flight Rules
Oct-22 @ 20:56 UTC
(47 minutes ago)
VFR
Wind Visibility
210° at 8 knots 10 miles
Clouds
  • Clear skies
Temperature Dewpoint
13°C / 55°F -1°C / 30°F
Humidity Altimeter Pressure
38% 30.13" Hg 1020.4 hPa